sensor_id;sensor_type;location;lat;lon;timestamp;temperature;humidity
1534;DHT22;760;48.822;9.304;2023-11-21T04:08:46;9.30;99.90
1534;DHT22;760;48.822;9.304;2023-11-21T04:11:13;9.30;99.90
1534;DHT22;760;48.822;9.304;2023-11-21T04:13:39;9.40;99.90
1534;DHT22;760;48.822;9.304;2023-11-21T04:16:07;9.40;99.90
1534;DHT22;760;48.822;9.304;2023-11-21T04:18:34;9.40;99.90
1534;DHT22;760;48.822;9.304;2023-11-21T04:21:00;9.40;99.90
1534;DHT22;760;48.822;9.304;2023-11-21T04:23:26;9.40;99.90
1534;DHT22;760;48.822;9.304;2023-11-21T04:25:52;9.40;99.90
1534;DHT22;760;48.822;9.304;2023-11-21T04:28:19;9.40;99.90
1534;DHT22;760;48.822;9.304;2023-11-21T04:30:45;9.30;99.90
1534;DHT22;760;48.822;9.304;2023-11-21T04:33:10;9.30;99.90
1534;DHT22;760;48.822;9.304;2023-11-21T04:35:36;9.30;99.90
1534;DHT22;760;48.822;9.304;2023-11-21T04:38:02;9.30;99.90
1534;DHT22;760;48.822;9.304;2023-11-21T04:40:28;9.30;99.90
1534;DHT22;760;48.822;9.304;2023-11-21T04:42:53;9.30;99.90
1534;DHT22;760;48.822;9.304;2023-11-21T04:45:19;9.20;99.90
1534;DHT22;760;48.822;9.304;2023-11-21T04:47:44;9.20;99.90
1534;DHT22;760;48.822;9.304;2023-11-21T04:50:10;9.20;99.90
1534;DHT22;760;48.822;9.304;2023-11-21T04:52:36;9.20;99.90
1534;DHT22;760;48.822;9.304;2023-11-21T04:55:01;9.20;99.90
1534;DHT22;760;48.822;9.304;2023-11-21T04:57:27;9.20;99.90
1534;DHT22;760;48.822;9.304;2023-11-21T04:59:54;9.10;99.90
1534;DHT22;760;48.822;9.304;2023-11-21T05:02:20;9.10;99.90
1534;DHT22;760;48.822;9.304;2023-11-21T05:04:47;9.10;99.90
1534;DHT22;760;48.822;9.304;2023-11-21T05:07:13;9.10;99.90
1534;DHT22;760;48.822;9.304;2023-11-21T05:09:44;9.10;99.90
1534;DHT22;760;48.822;9.304;2023-11-21T05:12:12;9.10;99.90
1534;DHT22;760;48.822;9.304;2023-11-21T05:14:38;9.10;99.90
1534;DHT22;760;48.822;9.304;2023-11-21T05:17:03;9.10;99.90
1534;DHT22;760;48.822;9.304;2023-11-21T05:19:33;9.10;99.90
1534;DHT22;760;48.822;9.304;2023-11-21T05:22:00;9.10;99.90
1534;DHT22;760;48.822;9.304;2023-11-21T05:24:26;9.10;99.90
1534;DHT22;760;48.822;9.304;2023-11-21T05:26:52;9.10;99.90
1534;DHT22;760;48.822;9.304;2023-11-21T05:29:18;9.10;99.90
1534;DHT22;760;48.822;9.304;2023-11-21T05:31:44;9.10;99.90
1534;DHT22;760;48.822;9.304;2023-11-21T05:34:09;9.10;99.90
1534;DHT22;760;48.822;9.304;2023-11-21T05:36:35;9.10;99.90
1534;DHT22;760;48.822;9.304;2023-11-21T05:39:00;9.10;99.90
1534;DHT22;760;48.822;9.304;2023-11-21T05:41:26;9.10;99.90
1534;DHT22;760;48.822;9.304;2023-11-21T05:43:51;9.00;99.90
1534;DHT22;760;48.822;9.304;2023-11-21T05:46:19;9.00;99.90
1534;DHT22;760;48.822;9.304;2023-11-21T05:48:45;9.00;99.90
1534;DHT22;760;48.822;9.304;2023-11-21T05:51:11;9.00;99.90
1534;DHT22;760;48.822;9.304;2023-11-21T05:53:39;9.00;99.90
1534;DHT22;760;48.822;9.304;2023-11-21T05:56:04;9.00;99.90
1534;DHT22;760;48.822;9.304;2023-11-21T05:58:30;9.00;99.90
1534;DHT22;760;48.822;9.304;2023-11-21T06:00:56;9.00;99.90
1534;DHT22;760;48.822;9.304;2023-11-21T06:03:23;8.90;99.90
1534;DHT22;760;48.822;9.304;2023-11-21T06:05:48;9.00;99.90
1534;DHT22;760;48.822;9.304;2023-11-21T06:08:14;8.90;99.90
1534;DHT22;760;48.822;9.304;2023-11-21T06:10:42;8.90;99.90
1534;DHT22;760;48.822;9.304;2023-11-21T06:13:09;8.90;99.90
1534;DHT22;760;48.822;9.304;2023-11-21T06:15:35;8.90;99.90
1534;DHT22;760;48.822;9.304;2023-11-21T06:18:01;8.90;99.90
1534;DHT22;760;48.822;9.304;2023-11-21T06:20:27;8.90;99.90
1534;DHT22;760;48.822;9.304;2023-11-21T06:22:53;8.90;99.90
1534;DHT22;760;48.822;9.304;2023-11-21T06:25:19;8.90;99.90
1534;DHT22;760;48.822;9.304;2023-11-21T06:27:46;8.90;99.90
1534;DHT22;760;48.822;9.304;2023-11-21T06:30:15;8.90;99.90
1534;DHT22;760;48.822;9.304;2023-11-21T06:32:42;9.00;99.90
1534;DHT22;760;48.822;9.304;2023-11-21T06:35:11;9.00;99.90
1534;DHT22;760;48.822;9.304;2023-11-21T06:37:37;9.00;99.90
1534;DHT22;760;48.822;9.304;2023-11-21T06:40:03;9.00;99.90
1534;DHT22;760;48.822;9.304;2023-11-21T06:42:29;9.00;99.90
1534;DHT22;760;48.822;9.304;2023-11-21T06:44:55;9.00;99.90
1534;DHT22;760;48.822;9.304;2023-11-21T06:47:25;9.00;99.90
1534;DHT22;760;48.822;9.304;2023-11-21T06:49:51;9.00;99.90
1534;DHT22;760;48.822;9.304;2023-11-21T06:52:17;9.00;99.90
1534;DHT22;760;48.822;9.304;2023-11-21T06:54:43;9.00;99.90
1534;DHT22;760;48.822;9.304;2023-11-21T06:57:09;9.10;99.90
1534;DHT22;760;48.822;9.304;2023-11-21T06:59:34;9.10;99.90
1534;DHT22;760;48.822;9.304;2023-11-21T07:02:00;9.20;99.90
1534;DHT22;760;48.822;9.304;2023-11-21T07:04:26;9.20;99.90
1534;DHT22;760;48.822;9.304;2023-11-21T07:06:53;9.20;99.90
1534;DHT22;760;48.822;9.304;2023-11-21T07:09:18;9.20;99.90
1534;DHT22;760;48.822;9.304;2023-11-21T07:11:47;9.30;99.90
1534;DHT22;760;48.822;9.304;2023-11-21T07:14:14;9.30;99.90
1534;DHT22;760;48.822;9.304;2023-11-21T07:16:40;9.30;99.90
1534;DHT22;760;48.822;9.304;2023-11-21T07:19:09;9.30;99.90
1534;DHT22;760;48.822;9.304;2023-11-21T07:21:35;9.30;99.90
1534;DHT22;760;48.822;9.304;2023-11-21T07:24:02;9.30;99.90
1534;DHT22;760;48.822;9.304;2023-11-21T07:26:28;9.40;99.90
1534;DHT22;760;48.822;9.304;2023-11-21T07:28:54;9.40;99.90
1534;DHT22;760;48.822;9.304;2023-11-21T07:31:20;9.40;99.90
1534;DHT22;760;48.822;9.304;2023-11-21T07:33:46;9.50;99.90
1534;DHT22;760;48.822;9.304;2023-11-21T07:36:13;9.50;99.90
1534;DHT22;760;48.822;9.304;2023-11-21T07:38:39;9.60;99.90
1534;DHT22;760;48.822;9.304;2023-11-21T07:41:05;9.60;99.90
1534;DHT22;760;48.822;9.304;2023-11-21T07:43:34;9.70;99.90
1534;DHT22;760;48.822;9.304;2023-11-21T07:46:04;9.70;99.90
1534;DHT22;760;48.822;9.304;2023-11-21T07:48:33;9.70;99.90
1534;DHT22;760;48.822;9.304;2023-11-21T07:51:00;9.70;99.90
1534;DHT22;760;48.822;9.304;2023-11-21T07:53:26;9.80;99.90
1534;DHT22;760;48.822;9.304;2023-11-21T07:55:55;9.80;99.90
1534;DHT22;760;48.822;9.304;2023-11-21T07:58:21;9.90;99.90
1534;DHT22;760;48.822;9.304;2023-11-21T08:00:47;9.90;99.90
1534;DHT22;760;48.822;9.304;2023-11-21T08:03:13;9.90;99.90
1534;DHT22;760;48.822;9.304;2023-11-21T08:05:39;9.90;99.90
1534;DHT22;760;48.822;9.304;2023-11-21T08:08:05;9.90;99.90
1534;DHT22;760;48.822;9.304;2023-11-21T08:10:31;9.90;99.90
1534;DHT22;760;48.822;9.304;2023-11-21T08:12:56;9.90;99.90
1534;DHT22;760;48.822;9.304;2023-11-21T08:15:22;9.90;99.90
1534;DHT22;760;48.822;9.304;2023-11-21T08:17:48;10.00;99.90
1534;DHT22;760;48.822;9.304;2023-11-21T08:20:14;10.00;99.90
1534;DHT22;760;48.822;9.304;2023-11-21T08:22:42;10.00;99.90
1534;DHT22;760;48.822;9.304;2023-11-21T08:25:08;10.10;99.90
1534;DHT22;760;48.822;9.304;2023-11-21T08:27:34;10.10;99.90
1534;DHT22;760;48.822;9.304;2023-11-21T08:30:03;10.10;99.90
1534;DHT22;760;48.822;9.304;2023-11-21T08:32:29;10.10;99.90
1534;DHT22;760;48.822;9.304;2023-11-21T08:34:57;10.20;99.90
1534;DHT22;760;48.822;9.304;2023-11-21T08:37:23;10.20;99.90
1534;DHT22;760;48.822;9.304;2023-11-21T08:39:49;10.20;99.90
1534;DHT22;760;48.822;9.304;2023-11-21T08:42:15;10.20;99.90
1534;DHT22;760;48.822;9.304;2023-11-21T08:44:40;10.30;99.90
1534;DHT22;760;48.822;9.304;2023-11-21T08:47:06;10.40;99.90
1534;DHT22;760;48.822;9.304;2023-11-21T08:49:32;10.40;99.90
1534;DHT22;760;48.822;9.304;2023-11-21T08:51:58;10.50;99.90
1534;DHT22;760;48.822;9.304;2023-11-21T08:54:25;10.50;99.90
1534;DHT22;760;48.822;9.304;2023-11-21T08:56:52;10.50;99.90
1534;DHT22;760;48.822;9.304;2023-11-21T08:59:17;10.60;99.90
1534;DHT22;760;48.822;9.304;2023-11-21T09:01:43;10.60;99.90
1534;DHT22;760;48.822;9.304;2023-11-21T09:04:09;10.70;99.90
1534;DHT22;760;48.822;9.304;2023-11-21T09:06:34;10.70;99.90
1534;DHT22;760;48.822;9.304;2023-11-21T09:09:01;10.70;99.90
1534;DHT22;760;48.822;9.304;2023-11-21T09:11:27;10.60;99.90
1534;DHT22;760;48.822;9.304;2023-11-21T09:13:59;10.70;99.90
1534;DHT22;760;48.822;9.304;2023-11-21T09:16:24;10.70;99.90
1534;DHT22;760;48.822;9.304;2023-11-21T09:18:50;10.70;99.90
1534;DHT22;760;48.822;9.304;2023-11-21T09:21:15;10.70;99.90
1534;DHT22;760;48.822;9.304;2023-11-21T09:23:46;10.80;99.90
1534;DHT22;760;48.822;9.304;2023-11-21T09:26:11;10.90;99.90
1534;DHT22;760;48.822;9.304;2023-11-21T09:28:37;11.10;99.90
1534;DHT22;760;48.822;9.304;2023-11-21T09:31:04;11.50;99.90
1534;DHT22;760;48.822;9.304;2023-11-21T09:33:30;12.30;99.90
1534;DHT22;760;48.822;9.304;2023-11-21T09:35:56;13.20;99.90
1534;DHT22;760;48.822;9.304;2023-11-21T09:38:22;13.80;99.90
1534;DHT22;760;48.822;9.304;2023-11-21T09:40:48;14.00;99.90
1534;DHT22;760;48.822;9.304;2023-11-21T09:43:17;14.20;99.90
1534;DHT22;760;48.822;9.304;2023-11-21T09:45:46;14.40;99.90
1534;DHT22;760;48.822;9.304;2023-11-21T09:48:17;14.30;99.90
1534;DHT22;760;48.822;9.304;2023-11-21T09:50:43;14.10;99.90
1534;DHT22;760;48.822;9.304;2023-11-21T09:53:18;14.00;99.90
1534;DHT22;760;48.822;9.304;2023-11-21T09:55:48;13.90;99.90
1534;DHT22;760;48.822;9.304;2023-11-21T09:58:14;13.80;99.90
1534;DHT22;760;48.822;9.304;2023-11-21T10:00:47;13.70;99.90
1534;DHT22;760;48.822;9.304;2023-11-21T10:03:14;13.40;99.90
1534;DHT22;760;48.822;9.304;2023-11-21T10:05:41;13.10;99.90
1534;DHT22;760;48.822;9.304;2023-11-21T10:08:08;13.00;99.90
1534;DHT22;760;48.822;9.304;2023-11-21T10:10:42;12.90;99.90
1534;DHT22;760;48.822;9.304;2023-11-21T10:13:11;12.70;99.90
1534;DHT22;760;48.822;9.304;2023-11-21T10:15:38;12.60;99.90
1534;DHT22;760;48.822;9.304;2023-11-21T10:18:04;12.50;99.90
1534;DHT22;760;48.822;9.304;2023-11-21T10:20:32;12.40;99.90
1534;DHT22;760;48.822;9.304;2023-11-21T10:22:59;12.40;99.90
1534;DHT22;760;48.822;9.304;2023-11-21T10:25:27;12.30;99.90
1534;DHT22;760;48.822;9.304;2023-11-21T10:27:58;12.30;99.90
1534;DHT22;760;48.822;9.304;2023-11-21T10:30:36;12.40;99.90
1534;DHT22;760;48.822;9.304;2023-11-21T10:33:04;12.40;99.90
1534;DHT22;760;48.822;9.304;2023-11-21T10:35:46;12.40;99.90
1534;DHT22;760;48.822;9.304;2023-11-21T10:38:19;12.40;99.90
1534;DHT22;760;48.822;9.304;2023-11-21T10:40:48;12.50;99.90
1534;DHT22;760;48.822;9.304;2023-11-21T10:43:14;12.50;99.90
1534;DHT22;760;48.822;9.304;2023-11-21T10:45:41;12.40;99.90
1534;DHT22;760;48.822;9.304;2023-11-21T10:48:13;12.30;99.90
1534;DHT22;760;48.822;9.304;2023-11-21T10:50:46;12.10;99.90
1534;DHT22;760;48.822;9.304;2023-11-21T10:53:12;12.00;99.90
1534;DHT22;760;48.822;9.304;2023-11-21T10:55:38;11.80;99.90
1534;DHT22;760;48.822;9.304;2023-11-21T10:58:05;11.80;99.90
1534;DHT22;760;48.822;9.304;2023-11-21T11:00:32;11.60;99.90
1534;DHT22;760;48.822;9.304;2023-11-21T11:02:58;11.50;99.90
1534;DHT22;760;48.822;9.304;2023-11-21T11:05:26;11.40;99.90
1534;DHT22;760;48.822;9.304;2023-11-21T11:08:12;11.40;99.90
1534;DHT22;760;48.822;9.304;2023-11-21T11:10:39;11.40;99.90
1534;DHT22;760;48.822;9.304;2023-11-21T11:13:07;11.40;99.90
1534;DHT22;760;48.822;9.304;2023-11-21T11:15:32;11.30;99.90
1534;DHT22;760;48.822;9.304;2023-11-21T11:17:59;11.40;99.90
1534;DHT22;760;48.822;9.304;2023-11-21T11:20:29;11.40;99.90
1534;DHT22;760;48.822;9.304;2023-11-21T11:29:18;11.70;99.90
1534;DHT22;760;48.822;9.304;2023-11-21T11:34:56;11.90;99.90
1534;DHT22;760;48.822;9.304;2023-11-21T11:37:25;11.90;99.90
1534;DHT22;760;48.822;9.304;2023-11-21T11:39:51;12.00;99.90
1534;DHT22;760;48.822;9.304;2023-11-21T11:42:17;12.00;99.90
1534;DHT22;760;48.822;9.304;2023-11-21T11:47:16;12.10;99.90
1534;DHT22;760;48.822;9.304;2023-11-21T11:55:00;12.30;99.90
1534;DHT22;760;48.822;9.304;2023-11-21T11:57:25;12.30;99.90
1534;DHT22;760;48.822;9.304;2023-11-21T12:00:14;12.30;99.90
1534;DHT22;760;48.822;9.304;2023-11-21T12:03:01;12.30;99.90
1534;DHT22;760;48.822;9.304;2023-11-21T12:05:29;12.20;99.90
1534;DHT22;760;48.822;9.304;2023-11-21T12:08:00;12.20;99.90
1534;DHT22;760;48.822;9.304;2023-11-21T12:10:31;12.10;99.90
1534;DHT22;760;48.822;9.304;2023-11-21T12:12:58;12.10;99.90
1534;DHT22;760;48.822;9.304;2023-11-21T12:15:25;12.00;99.90
1534;DHT22;760;48.822;9.304;2023-11-21T12:17:51;12.00;99.90
1534;DHT22;760;48.822;9.304;2023-11-21T12:20:21;12.00;99.90
1534;DHT22;760;48.822;9.304;2023-11-21T12:22:48;12.00;99.90
1534;DHT22;760;48.822;9.304;2023-11-21T12:25:18;12.00;99.90
1534;DHT22;760;48.822;9.304;2023-11-21T12:27:52;12.10;99.90
1534;DHT22;760;48.822;9.304;2023-11-21T12:30:22;12.00;99.90
1534;DHT22;760;48.822;9.304;2023-11-21T12:32:52;12.10;99.90
1534;DHT22;760;48.822;9.304;2023-11-21T12:35:19;12.10;99.90
1534;DHT22;760;48.822;9.304;2023-11-21T12:37:46;12.20;99.90
1534;DHT22;760;48.822;9.304;2023-11-21T12:40:13;12.20;99.90
1534;DHT22;760;48.822;9.304;2023-11-21T12:42:52;12.20;99.90
1534;DHT22;760;48.822;9.304;2023-11-21T12:45:20;12.20;99.90
1534;DHT22;760;48.822;9.304;2023-11-21T12:47:56;12.20;99.90
1534;DHT22;760;48.822;9.304;2023-11-21T12:50:26;12.10;99.90
1534;DHT22;760;48.822;9.304;2023-11-21T12:53:05;12.10;99.90
1534;DHT22;760;48.822;9.304;2023-11-21T12:55:34;12.00;99.90
1534;DHT22;760;48.822;9.304;2023-11-21T12:58:04;12.10;99.90
1534;DHT22;760;48.822;9.304;2023-11-21T13:00:41;12.00;99.90
1534;DHT22;760;48.822;9.304;2023-11-21T13:03:09;12.00;99.90
1534;DHT22;760;48.822;9.304;2023-11-21T13:05:39;12.10;99.90
1534;DHT22;760;48.822;9.304;2023-11-21T13:08:06;12.20;99.90
1534;DHT22;760;48.822;9.304;2023-11-21T13:10:34;12.40;99.90
1534;DHT22;760;48.822;9.304;2023-11-21T13:13:03;12.50;99.90
1534;DHT22;760;48.822;9.304;2023-11-21T13:15:31;12.50;99.90
1534;DHT22;760;48.822;9.304;2023-11-21T13:17:58;12.50;99.90
1534;DHT22;760;48.822;9.304;2023-11-21T13:20:25;12.40;99.90
1534;DHT22;760;48.822;9.304;2023-11-21T13:22:55;12.30;99.90
1534;DHT22;760;48.822;9.304;2023-11-21T13:25:29;12.20;99.90
1534;DHT22;760;48.822;9.304;2023-11-21T13:27:57;12.00;99.90
1534;DHT22;760;48.822;9.304;2023-11-21T13:30:24;11.80;99.90
1534;DHT22;760;48.822;9.304;2023-11-21T13:32:56;11.70;99.90
1534;DHT22;760;48.822;9.304;2023-11-21T13:35:23;11.70;99.90
1534;DHT22;760;48.822;9.304;2023-11-21T13:37:57;11.60;99.90
1534;DHT22;760;48.822;9.304;2023-11-21T13:40:25;11.50;99.90
1534;DHT22;760;48.822;9.304;2023-11-21T13:42:55;11.40;99.90
1534;DHT22;760;48.822;9.304;2023-11-21T13:45:26;11.30;99.90
1534;DHT22;760;48.822;9.304;2023-11-21T13:47:53;11.20;99.90
1534;DHT22;760;48.822;9.304;2023-11-21T13:50:30;11.20;99.90
1534;DHT22;760;48.822;9.304;2023-11-21T13:53:02;11.10;99.90
1534;DHT22;760;48.822;9.304;2023-11-21T13:55:36;11.10;99.90
1534;DHT22;760;48.822;9.304;2023-11-21T13:58:02;11.00;99.90
1534;DHT22;760;48.822;9.304;2023-11-21T14:00:29;11.00;99.90
1534;DHT22;760;48.822;9.304;2023-11-21T14:03:10;11.00;99.90
1534;DHT22;760;48.822;9.304;2023-11-21T14:05:44;11.00;99.90
1534;DHT22;760;48.822;9.304;2023-11-21T14:08:12;11.00;99.90
1534;DHT22;760;48.822;9.304;2023-11-21T14:10:42;11.00;99.90
1534;DHT22;760;48.822;9.304;2023-11-21T14:13:14;11.10;99.90
1534;DHT22;760;48.822;9.304;2023-11-21T14:15:42;11.00;99.90
1534;DHT22;760;48.822;9.304;2023-11-21T14:18:10;11.00;99.90
1534;DHT22;760;48.822;9.304;2023-11-21T14:20:37;11.00;99.90
1534;DHT22;760;48.822;9.304;2023-11-21T14:23:03;11.00;99.90
1534;DHT22;760;48.822;9.304;2023-11-21T14:25:31;11.00;99.90
1534;DHT22;760;48.822;9.304;2023-11-21T14:27:57;10.90;99.90
1534;DHT22;760;48.822;9.304;2023-11-21T14:30:23;10.90;99.90
1534;DHT22;760;48.822;9.304;2023-11-21T14:32:49;10.90;99.90
1534;DHT22;760;48.822;9.304;2023-11-21T14:35:16;10.90;99.90
1534;DHT22;760;48.822;9.304;2023-11-21T14:37:43;10.90;99.90
1534;DHT22;760;48.822;9.304;2023-11-21T14:40:09;10.80;99.90
1534;DHT22;760;48.822;9.304;2023-11-21T14:42:35;10.80;99.90
1534;DHT22;760;48.822;9.304;2023-11-21T14:45:03;10.70;99.90
1534;DHT22;760;48.822;9.304;2023-11-21T14:47:32;10.70;99.90
1534;DHT22;760;48.822;9.304;2023-11-21T14:49:58;10.60;99.90
1534;DHT22;760;48.822;9.304;2023-11-21T14:52:25;10.60;99.90
1534;DHT22;760;48.822;9.304;2023-11-21T14:54:56;10.50;99.90
1534;DHT22;760;48.822;9.304;2023-11-21T14:57:42;10.60;99.90
1534;DHT22;760;48.822;9.304;2023-11-21T15:00:16;10.50;99.90
1534;DHT22;760;48.822;9.304;2023-11-21T15:03:02;10.50;99.90
1534;DHT22;760;48.822;9.304;2023-11-21T15:05:29;10.50;99.90
1534;DHT22;760;48.822;9.304;2023-11-21T15:07:55;10.50;99.90
1534;DHT22;760;48.822;9.304;2023-11-21T15:10:40;10.40;99.90
1534;DHT22;760;48.822;9.304;2023-11-21T15:13:13;10.40;99.90
1534;DHT22;760;48.822;9.304;2023-11-21T15:15:41;10.40;99.90
1534;DHT22;760;48.822;9.304;2023-11-21T15:18:06;10.40;99.90
1534;DHT22;760;48.822;9.304;2023-11-21T15:20:32;10.40;99.90
1534;DHT22;760;48.822;9.304;2023-11-21T15:22:58;10.30;99.90
1534;DHT22;760;48.822;9.304;2023-11-21T15:25:23;10.30;99.90
1534;DHT22;760;48.822;9.304;2023-11-21T15:27:49;10.30;99.90
1534;DHT22;760;48.822;9.304;2023-11-21T15:30:16;10.20;99.90
1534;DHT22;760;48.822;9.304;2023-11-21T15:32:45;10.20;99.90
1534;DHT22;760;48.822;9.304;2023-11-21T15:35:12;10.10;99.90
1534;DHT22;760;48.822;9.304;2023-11-21T15:37:40;10.10;99.90
1534;DHT22;760;48.822;9.304;2023-11-21T15:40:06;10.00;99.90
1534;DHT22;760;48.822;9.304;2023-11-21T15:42:34;10.00;99.90
1534;DHT22;760;48.822;9.304;2023-11-21T15:45:01;10.00;99.90
1534;DHT22;760;48.822;9.304;2023-11-21T15:47:27;10.00;99.90
1534;DHT22;760;48.822;9.304;2023-11-21T15:49:52;10.00;99.90
1534;DHT22;760;48.822;9.304;2023-11-21T15:52:18;10.00;99.90
1534;DHT22;760;48.822;9.304;2023-11-21T15:54:44;9.90;99.90
1534;DHT22;760;48.822;9.304;2023-11-21T15:57:11;9.90;99.90
1534;DHT22;760;48.822;9.304;2023-11-21T15:59:40;9.90;99.90
1534;DHT22;760;48.822;9.304;2023-11-21T16:02:07;9.90;99.90
1534;DHT22;760;48.822;9.304;2023-11-21T16:04:33;9.90;99.90
1534;DHT22;760;48.822;9.304;2023-11-21T16:07:01;9.90;99.90
1534;DHT22;760;48.822;9.304;2023-11-21T16:09:27;9.90;99.90
1534;DHT22;760;48.822;9.304;2023-11-21T16:11:57;9.90;99.90
1534;DHT22;760;48.822;9.304;2023-11-21T16:14:30;9.90;99.90
1534;DHT22;760;48.822;9.304;2023-11-21T16:17:07;9.80;99.90
1534;DHT22;760;48.822;9.304;2023-11-21T16:19:33;9.80;99.90
1534;DHT22;760;48.822;9.304;2023-11-21T16:21:59;9.80;99.90
1534;DHT22;760;48.822;9.304;2023-11-21T16:24:26;9.80;99.90
1534;DHT22;760;48.822;9.304;2023-11-21T16:26:53;9.80;99.90
1534;DHT22;760;48.822;9.304;2023-11-21T16:29:22;9.70;99.90
1534;DHT22;760;48.822;9.304;2023-11-21T16:31:48;9.70;99.90
1534;DHT22;760;48.822;9.304;2023-11-21T16:34:18;9.60;99.90
1534;DHT22;760;48.822;9.304;2023-11-21T16:36:44;9.50;99.90
1534;DHT22;760;48.822;9.304;2023-11-21T16:39:15;9.40;99.90
1534;DHT22;760;48.822;9.304;2023-11-21T16:41:43;9.40;99.90
1534;DHT22;760;48.822;9.304;2023-11-21T16:44:16;9.40;99.90
1534;DHT22;760;48.822;9.304;2023-11-21T16:46:48;9.30;99.90
1534;DHT22;760;48.822;9.304;2023-11-21T16:49:16;9.30;99.90
1534;DHT22;760;48.822;9.304;2023-11-21T16:51:49;9.20;99.90
1534;DHT22;760;48.822;9.304;2023-11-21T16:54:15;9.10;99.90
1534;DHT22;760;48.822;9.304;2023-11-21T16:56:41;9.10;99.90
1534;DHT22;760;48.822;9.304;2023-11-21T16:59:07;9.00;99.90
1534;DHT22;760;48.822;9.304;2023-11-21T17:01:34;8.90;99.90
1534;DHT22;760;48.822;9.304;2023-11-21T17:03:59;8.90;99.90
1534;DHT22;760;48.822;9.304;2023-11-21T17:06:26;8.90;99.90
1534;DHT22;760;48.822;9.304;2023-11-21T17:08:53;8.80;99.90
1534;DHT22;760;48.822;9.304;2023-11-21T17:11:18;8.80;99.90
1534;DHT22;760;48.822;9.304;2023-11-21T17:13:45;8.70;99.90
1534;DHT22;760;48.822;9.304;2023-11-21T17:16:10;8.70;99.90
1534;DHT22;760;48.822;9.304;2023-11-21T17:18:36;8.70;99.90
1534;DHT22;760;48.822;9.304;2023-11-21T17:21:02;8.60;99.90
1534;DHT22;760;48.822;9.304;2023-11-21T17:23:27;8.60;99.90
1534;DHT22;760;48.822;9.304;2023-11-21T17:25:54;8.60;99.90
1534;DHT22;760;48.822;9.304;2023-11-21T17:28:19;8.60;99.90
1534;DHT22;760;48.822;9.304;2023-11-21T17:30:45;8.50;99.90
1534;DHT22;760;48.822;9.304;2023-11-21T17:33:11;8.50;99.90
1534;DHT22;760;48.822;9.304;2023-11-21T17:35:38;8.50;99.90
1534;DHT22;760;48.822;9.304;2023-11-21T17:38:04;8.50;99.90
1534;DHT22;760;48.822;9.304;2023-11-21T17:40:30;8.50;99.90
1534;DHT22;760;48.822;9.304;2023-11-21T17:42:56;8.50;99.90
1534;DHT22;760;48.822;9.304;2023-11-21T17:45:22;8.50;99.90
1534;DHT22;760;48.822;9.304;2023-11-21T17:47:47;8.40;99.90
1534;DHT22;760;48.822;9.304;2023-11-21T17:50:13;8.40;99.90
1534;DHT22;760;48.822;9.304;2023-11-21T17:52:39;8.40;99.90
1534;DHT22;760;48.822;9.304;2023-11-21T17:55:05;8.40;99.90
1534;DHT22;760;48.822;9.304;2023-11-21T17:57:34;8.50;99.90
1534;DHT22;760;48.822;9.304;2023-11-21T18:00:01;8.50;99.90
1534;DHT22;760;48.822;9.304;2023-11-21T18:02:30;8.50;99.90
1534;DHT22;760;48.822;9.304;2023-11-21T18:04:57;8.50;99.90
1534;DHT22;760;48.822;9.304;2023-11-21T18:07:25;8.60;99.90
1534;DHT22;760;48.822;9.304;2023-11-21T18:09:51;8.60;99.90
1534;DHT22;760;48.822;9.304;2023-11-21T18:12:17;8.70;99.90
1534;DHT22;760;48.822;9.304;2023-11-21T18:14:44;8.70;99.90
1534;DHT22;760;48.822;9.304;2023-11-21T18:17:14;8.70;99.90
1534;DHT22;760;48.822;9.304;2023-11-21T18:19:45;8.70;99.90
1534;DHT22;760;48.822;9.304;2023-11-21T18:22:11;8.70;99.90
1534;DHT22;760;48.822;9.304;2023-11-21T18:24:37;8.80;99.90
1534;DHT22;760;48.822;9.304;2023-11-21T18:27:05;8.80;99.90
1534;DHT22;760;48.822;9.304;2023-11-21T18:29:31;8.80;99.90
1534;DHT22;760;48.822;9.304;2023-11-21T18:31:57;8.80;99.90
1534;DHT22;760;48.822;9.304;2023-11-21T18:34:22;8.90;99.90
1534;DHT22;760;48.822;9.304;2023-11-21T18:36:49;8.90;99.90
1534;DHT22;760;48.822;9.304;2023-11-21T18:39:16;8.80;99.90
1534;DHT22;760;48.822;9.304;2023-11-21T18:41:43;8.90;99.90
1534;DHT22;760;48.822;9.304;2023-11-21T18:44:08;8.80;99.90
1534;DHT22;760;48.822;9.304;2023-11-21T18:46:37;8.90;99.90
1534;DHT22;760;48.822;9.304;2023-11-21T18:49:02;8.90;99.90
1534;DHT22;760;48.822;9.304;2023-11-21T18:51:28;8.90;99.90
1534;DHT22;760;48.822;9.304;2023-11-21T18:53:54;8.90;99.90
1534;DHT22;760;48.822;9.304;2023-11-21T18:56:20;8.90;99.90
1534;DHT22;760;48.822;9.304;2023-11-21T18:58:47;8.90;99.90
1534;DHT22;760;48.822;9.304;2023-11-21T19:01:13;9.00;99.90
1534;DHT22;760;48.822;9.304;2023-11-21T19:03:42;9.00;99.90
1534;DHT22;760;48.822;9.304;2023-11-21T19:06:08;9.00;99.90
1534;DHT22;760;48.822;9.304;2023-11-21T19:08:35;9.00;99.90
1534;DHT22;760;48.822;9.304;2023-11-21T19:11:00;9.00;99.90
1534;DHT22;760;48.822;9.304;2023-11-21T19:13:26;9.00;99.90
1534;DHT22;760;48.822;9.304;2023-11-21T19:15:51;9.00;99.90
1534;DHT22;760;48.822;9.304;2023-11-21T19:18:17;8.90;99.90
1534;DHT22;760;48.822;9.304;2023-11-21T19:20:44;8.90;99.90
1534;DHT22;760;48.822;9.304;2023-11-21T19:23:09;8.90;99.90
1534;DHT22;760;48.822;9.304;2023-11-21T19:25:35;8.90;99.90
1534;DHT22;760;48.822;9.304;2023-11-21T19:28:01;8.90;99.90
1534;DHT22;760;48.822;9.304;2023-11-21T19:30:27;8.90;99.90
1534;DHT22;760;48.822;9.304;2023-11-21T19:32:52;8.90;99.90
1534;DHT22;760;48.822;9.304;2023-11-21T19:35:18;8.90;99.90
1534;DHT22;760;48.822;9.304;2023-11-21T19:37:44;9.00;99.90
1534;DHT22;760;48.822;9.304;2023-11-21T19:40:10;8.90;99.90
1534;DHT22;760;48.822;9.304;2023-11-21T19:42:37;8.90;99.90
1534;DHT22;760;48.822;9.304;2023-11-21T19:45:05;8.90;99.90
1534;DHT22;760;48.822;9.304;2023-11-21T19:47:30;8.90;99.90
1534;DHT22;760;48.822;9.304;2023-11-21T19:49:58;8.90;99.90
1534;DHT22;760;48.822;9.304;2023-11-21T19:52:24;8.90;99.90
1534;DHT22;760;48.822;9.304;2023-11-21T19:54:51;8.90;99.90
1534;DHT22;760;48.822;9.304;2023-11-21T19:57:19;8.80;99.90
1534;DHT22;760;48.822;9.304;2023-11-21T19:59:45;8.80;99.90
1534;DHT22;760;48.822;9.304;2023-11-21T20:02:11;8.80;99.90
1534;DHT22;760;48.822;9.304;2023-11-21T20:04:37;8.80;99.90
1534;DHT22;760;48.822;9.304;2023-11-21T20:07:02;8.80;99.90
1534;DHT22;760;48.822;9.304;2023-11-21T20:09:28;8.80;99.90
1534;DHT22;760;48.822;9.304;2023-11-21T20:11:54;8.80;99.90
1534;DHT22;760;48.822;9.304;2023-11-21T20:14:23;8.70;99.90
1534;DHT22;760;48.822;9.304;2023-11-21T20:16:49;8.70;99.90
1534;DHT22;760;48.822;9.304;2023-11-21T20:19:15;8.70;99.90
1534;DHT22;760;48.822;9.304;2023-11-21T20:21:40;8.70;99.90
1534;DHT22;760;48.822;9.304;2023-11-21T20:24:06;8.60;99.90
1534;DHT22;760;48.822;9.304;2023-11-21T20:26:32;8.60;99.90
1534;DHT22;760;48.822;9.304;2023-11-21T20:28:58;8.60;99.90
1534;DHT22;760;48.822;9.304;2023-11-21T20:31:23;8.60;99.90
1534;DHT22;760;48.822;9.304;2023-11-21T20:33:49;8.60;99.90
1534;DHT22;760;48.822;9.304;2023-11-21T20:36:15;8.60;99.90
1534;DHT22;760;48.822;9.304;2023-11-21T20:38:40;8.60;99.90
1534;DHT22;760;48.822;9.304;2023-11-21T20:41:06;8.60;99.90
1534;DHT22;760;48.822;9.304;2023-11-21T20:43:37;8.60;99.90
1534;DHT22;760;48.822;9.304;2023-11-21T20:46:02;8.60;99.90
1534;DHT22;760;48.822;9.304;2023-11-21T20:48:28;8.60;99.90
1534;DHT22;760;48.822;9.304;2023-11-21T20:50:54;8.60;99.90
1534;DHT22;760;48.822;9.304;2023-11-21T20:53:20;8.60;99.90